Time;durP1;ratioP1;P1;durP2;ratioP2;P2;SDS_P1;SDS_P2;PMS_P1;PMS_P2;Temp;Humidity;BMP_temperature;BMP_pressure;BME280_temperature;BME280_humidity;BME280_pressure;Samples;Min_cycle;Max_cycle;Signal;HPM_P1;HPM_P2
2021/01/11 00:00:33;;;;;;;18.95;7.53;;;0.90;99.90;;;-0.97;88.44;102001.69;5056672;28;20102;-40
2021/01/11 00:03:01;;;;;;;22.30;8.88;;;0.90;99.90;;;-0.95;87.76;102001.59;5056328;28;20032;-40
2021/01/11 00:05:28;;;;;;;15.07;6.93;;;1.00;99.90;;;-0.92;87.87;101996.88;5006069;28;20446;-39
2021/01/11 00:07:55;;;;;;;21.87;9.00;;;1.00;99.90;;;-0.91;88.16;101992.34;5056413;28;20512;-40
2021/01/11 00:10:23;;;;;;;18.80;8.15;;;1.00;99.90;;;-0.93;87.63;101979.09;5039727;28;20419;-40
2021/01/11 00:12:50;;;;;;;19.55;8.27;;;1.00;99.90;;;-0.95;87.74;101972.09;5072681;28;20461;-40
2021/01/11 00:15:18;;;;;;;20.57;8.33;;;1.00;99.90;;;-0.90;88.12;101967.28;5023319;28;20063;-40
2021/01/11 00:17:45;;;;;;;23.17;8.90;;;1.00;99.90;;;-0.89;88.19;101966.31;5023539;28;20041;-40
2021/01/11 00:20:13;;;;;;;23.70;9.35;;;1.00;99.90;;;-0.93;87.92;101962.13;5023278;28;20410;-40
2021/01/11 00:22:44;;;;;;;20.45;8.80;;;1.00;99.90;;;-0.98;87.48;101961.63;5056081;28;20530;-40
2021/01/11 00:25:13;;;;;;;18.65;8.82;;;1.00;99.90;;;-1.00;87.88;101964.38;5089181;28;20048;-40
2021/01/11 00:27:42;;;;;;;20.85;8.63;;;0.90;99.90;;;-0.96;87.45;101967.72;5056203;28;20106;-40
2021/01/11 00:30:12;;;;;;;21.20;9.48;;;1.00;99.90;;;-0.97;87.40;101966.84;5039664;28;20061;-40
2021/01/11 00:32:40;;;;;;;17.60;8.40;;;1.00;99.90;;;-0.98;87.91;101975.00;5072358;28;20044;-40
2021/01/11 00:35:09;;;;;;;23.23;8.98;;;0.90;99.90;;;-0.97;88.00;101982.09;5055789;28;20047;-41
2021/01/11 00:37:38;;;;;;;21.77;8.70;;;0.90;99.90;;;-0.96;88.61;101967.72;5072300;28;20105;-40
2021/01/11 00:40:08;;;;;;;22.35;9.68;;;0.90;99.90;;;-0.99;88.67;101968.78;5055765;28;20526;-40
2021/01/11 00:42:37;;;;;;;23.88;9.65;;;0.90;99.90;;;-0.97;88.69;101974.88;5072424;28;20067;-40
2021/01/11 00:45:09;;;;;;;18.80;9.23;;;0.90;99.90;;;-0.96;88.41;101978.44;5072279;28;20036;-40
2021/01/11 00:47:39;;;;;;;23.58;9.43;;;0.90;99.90;;;-0.97;88.59;101972.22;5023249;28;20044;-40
2021/01/11 00:50:11;;;;;;;18.38;8.73;;;1.00;99.90;;;-0.99;88.31;101971.47;5072243;28;20045;-40
2021/01/11 00:52:39;;;;;;;23.63;8.48;;;1.00;99.90;;;-0.92;88.55;101982.59;5072050;28;20048;-40
2021/01/11 00:55:14;;;;;;;19.83;9.35;;;1.00;99.90;;;-0.89;87.98;101979.72;5072037;28;20047;-40
2021/01/11 00:57:50;;;;;;;19.58;9.38;;;1.00;99.90;;;-0.90;87.93;101988.72;5056946;28;20048;-40
2021/01/11 01:00:24;;;;;;;18.95;8.68;;;1.00;99.90;;;-0.83;88.02;101991.81;5039985;28;20112;-40
2021/01/11 01:03:00;;;;;;;19.35;9.57;;;1.10;99.90;;;-0.82;87.77;102002.41;5073181;28;20362;-40
2021/01/11 01:05:27;;;;;;;19.63;9.10;;;1.10;99.90;;;-0.81;87.70;101998.78;5006085;28;20049;-40
2021/01/11 01:07:54;;;;;;;20.27;9.55;;;1.10;99.90;;;-0.82;87.90;101999.75;5022725;28;20452;-40
2021/01/11 01:10:22;;;;;;;22.70;9.60;;;1.10;99.90;;;-0.79;87.82;101996.88;5022532;28;20319;-40
2021/01/11 01:12:50;;;;;;;19.73;10.15;;;1.10;99.90;;;-0.79;87.43;101983.47;5071577;28;20470;-40
2021/01/11 01:15:17;;;;;;;17.42;9.60;;;1.10;99.90;;;-0.78;88.19;101978.94;5022080;28;20049;-40
2021/01/11 01:17:44;;;;;;;20.45;9.60;;;1.10;99.90;;;-0.80;88.35;101973.69;5022118;28;20037;-40
2021/01/11 01:22:50;;;;;;;24.08;10.55;;;1.10;99.90;;;-0.80;87.18;101978.19;5054818;28;20109;-40
2021/01/11 01:25:18;;;;;;;20.75;9.55;;;1.10;99.90;;;-0.78;87.70;101976.25;5054826;28;20043;-40
2021/01/11 01:27:46;;;;;;;20.58;10.02;;;1.10;99.90;;;-0.78;87.77;101984.31;5055271;28;20045;-40
2021/01/11 01:30:15;;;;;;;22.40;10.68;;;1.10;99.90;;;-0.73;87.74;101993.75;5021895;28;20056;-40
2021/01/11 01:32:42;;;;;;;21.52;10.07;;;1.20;99.90;;;-0.71;87.78;101987.41;5071187;28;20547;-40
2021/01/11 01:35:11;;;;;;;21.70;9.50;;;1.20;99.90;;;-0.73;87.14;101987.50;5021968;28;20068;-40
2021/01/11 01:37:40;;;;;;;24.42;10.38;;;1.20;99.90;;;-0.71;87.50;101987.41;5071245;28;20070;-40
2021/01/11 01:40:09;;;;;;;24.98;10.68;;;1.20;99.90;;;-0.72;87.52;101981.19;5054831;28;20074;-40
2021/01/11 01:42:37;;;;;;;24.98;11.75;;;1.20;99.90;;;-0.71;87.70;101992.78;5071040;28;20040;-40
2021/01/11 01:45:07;;;;;;;23.83;10.98;;;1.20;99.90;;;-0.71;87.30;101988.25;5037738;28;20040;-40
2021/01/11 01:47:37;;;;;;;20.70;10.38;;;1.20;99.90;;;-0.73;87.68;101985.69;5054437;28;20465;-40
2021/01/11 01:50:08;;;;;;;23.20;10.65;;;1.20;99.90;;;-0.74;87.19;101989.34;5070969;28;20105;-40
2021/01/11 01:52:38;;;;;;;21.85;10.98;;;1.20;99.90;;;-0.75;87.28;101987.63;5037781;28;20132;-40
2021/01/11 01:55:16;;;;;;;25.17;11.80;;;1.20;99.90;;;-0.73;87.67;101990.19;5070521;28;20072;-40
2021/01/11 01:57:45;;;;;;;20.80;10.52;;;1.20;99.90;;;-0.71;86.89;101990.09;5055854;28;20553;-40
2021/01/11 02:00:16;;;;;;;21.70;11.07;;;1.20;99.90;;;-0.81;86.75;101968.44;5054080;28;20067;-40
2021/01/11 02:02:45;;;;;;;23.77;10.65;;;1.20;99.90;;;-0.77;87.08;101988.69;5070753;28;20051;-40
2021/01/11 02:05:13;;;;;;;23.30;10.98;;;1.10;99.90;;;-0.72;87.72;101978.50;5037713;28;20051;-40
2021/01/11 02:08:00;;;;;;;23.73;10.93;;;1.10;99.90;;;-0.69;86.80;101982.78;5070579;28;20067;-40
2021/01/11 02:10:51;;;;;;;23.90;9.88;;;1.20;99.90;;;-0.69;86.70;101986.31;5053895;28;20048;-40
2021/01/11 02:13:28;;;;;;;23.70;10.57;;;1.20;99.90;;;-0.69;85.67;101980.97;5086846;28;20049;-40
2021/01/11 02:16:07;;;;;;;24.45;11.00;;;1.20;99.90;;;-0.68;86.24;101987.19;5087202;28;20522;-40
2021/01/11 02:18:51;;;;;;;24.75;11.23;;;1.20;99.90;;;-0.73;86.45;101992.88;5053880;28;20045;-40
2021/01/11 02:21:48;;;;;;;24.95;10.35;;;1.20;99.90;;;-0.74;86.50;101972.41;5070385;28;20079;-40
2021/01/11 02:24:44;;;;;;;25.38;11.07;;;1.20;99.90;;;-0.75;86.02;101978.72;5023698;28;20051;-40
2021/01/11 02:27:40;;;;;;;25.70;10.88;;;1.20;99.90;;;-0.79;86.66;101974.56;5056754;28;20076;-40
2021/01/11 02:30:28;;;;;;;24.65;11.93;;;1.10;99.90;;;-0.78;86.46;101985.19;5070112;28;20049;-40
2021/01/11 02:33:08;;;;;;;23.88;11.40;;;1.10;99.90;;;-0.76;86.95;101980.56;5055216;28;20040;-40
2021/01/11 02:35:48;;;;;;;25.98;10.93;;;1.10;99.90;;;-0.75;86.08;101992.13;5022225;28;20044;-40
2021/01/11 02:38:20;;;;;;;23.85;11.55;;;1.10;99.90;;;-0.75;86.08;101990.31;5053516;28;20044;-40
2021/01/11 02:40:50;;;;;;;28.52;11.77;;;1.10;99.90;;;-0.74;86.48;101994.72;5053968;28;20049;-40
2021/01/11 02:43:18;;;;;;;23.40;11.63;;;1.20;99.90;;;-0.77;87.07;101986.03;5070521;28;20458;-40
2021/01/11 02:45:46;;;;;;;26.90;11.90;;;1.10;99.90;;;-0.74;86.65;101984.00;5037024;28;20400;-40
2021/01/11 02:48:36;;;;;;;24.58;12.50;;;1.20;99.90;;;-0.73;86.82;101983.03;5037537;28;20044;-40
2021/01/11 02:51:19;;;;;;;25.17;11.52;;;1.20;99.90;;;-0.74;86.55;101977.75;5038533;28;20049;-40
2021/01/11 02:54:03;;;;;;;27.83;11.80;;;1.20;99.90;;;-0.76;86.02;101979.69;5071276;28;20418;-40
2021/01/11 02:56:50;;;;;;;27.42;11.80;;;1.20;99.90;;;-0.82;86.82;101980.97;5053535;28;20387;-40
2021/01/11 02:59:24;;;;;;;20.90;11.27;;;1.10;99.90;;;-0.73;87.18;101969.63;5053461;28;20051;-40
2021/01/11 03:02:01;;;;;;;26.15;12.32;;;1.10;99.90;;;-0.70;87.25;101968.53;5069955;28;20123;-40
2021/01/11 03:04:32;;;;;;;29.00;12.77;;;1.20;99.90;;;-0.77;87.23;101961.91;5070051;28;20044;-40
2021/01/11 03:07:07;;;;;;;24.55;11.70;;;1.20;99.90;;;-0.77;86.70;101952.06;5054066;28;20083;-40
2021/01/11 03:09:41;;;;;;;24.65;11.95;;;1.20;99.90;;;-0.76;87.56;101950.22;5053675;28;20139;-40
2021/01/11 03:12:10;;;;;;;27.55;13.00;;;1.20;99.90;;;-0.76;87.59;101951.09;5053671;28;20522;-40
2021/01/11 03:14:39;;;;;;;27.55;13.35;;;1.20;99.90;;;-0.71;86.90;101957.94;5020614;28;20044;-40
2021/01/11 03:17:07;;;;;;;28.88;13.32;;;1.20;99.90;;;-0.75;87.15;101944.75;5036707;28;20530;-40
2021/01/11 03:19:35;;;;;;;;;;;1.20;99.90;;;-0.75;86.87;101947.44;5053967;28;20041;-40
2021/01/11 03:22:04;;;;;;;29.77;12.88;;;1.20;99.90;;;-0.70;87.26;101941.72;5036643;28;20379;-40
2021/01/11 03:24:31;;;;;;;;;;;1.20;99.90;;;-0.66;86.65;101931.66;5037191;28;20044;-40
2021/01/11 03:27:01;;;;;;;32.13;12.65;;;1.20;99.90;;;-0.69;86.27;101929.19;5053617;28;19921;-40
2021/01/11 03:29:28;;;;;;;31.35;13.80;;;1.20;99.90;;;-0.68;85.40;101922.84;5069825;28;20067;-40
2021/01/11 03:31:56;;;;;;;32.70;14.32;;;1.20;99.90;;;-0.66;85.54;101923.59;5004217;28;20090;-40
2021/01/11 03:34:24;;;;;;;30.70;13.70;;;1.20;99.90;;;-0.63;86.37;101918.00;5020193;28;20064;-40
2021/01/11 03:36:52;;;;;;;31.25;14.02;;;1.30;99.90;;;-0.65;86.64;101911.91;5037197;28;20055;-40
2021/01/11 03:39:19;;;;;;;31.65;14.82;;;1.30;99.90;;;-0.66;86.59;101928.97;5004682;28;20060;-40
2021/01/11 03:41:47;;;;;;;29.38;13.48;;;1.20;99.90;;;-0.67;86.05;101922.72;5040533;28;20253;-40
2021/01/11 03:44:15;;;;;;;33.42;15.27;;;1.20;99.90;;;-0.64;85.17;101925.22;5040373;28;20042;-40
2021/01/11 03:46:42;;;;;;;31.58;13.70;;;1.30;99.90;;;-0.66;84.95;101931.66;5073396;28;20045;-40
2021/01/11 03:49:10;;;;;;;28.88;14.85;;;1.20;99.90;;;-0.67;84.80;101929.94;5040476;28;20048;-40
2021/01/11 03:51:37;;;;;;;31.70;14.88;;;1.30;99.90;;;-0.68;84.95;101929.06;5056735;28;20459;-40
2021/01/11 03:54:05;;;;;;;28.92;14.05;;;1.20;99.90;;;-0.63;84.56;101926.94;5040126;28;20040;-40
2021/01/11 03:56:33;;;;;;;35.50;15.05;;;1.20;99.90;;;-0.66;84.38;101931.66;5023995;28;20045;-40
2021/01/11 03:59:00;;;;;;;32.90;14.50;;;1.20;99.90;;;-0.67;85.13;101936.13;5056520;28;20415;-40
2021/01/11 04:01:28;;;;;;;31.80;14.27;;;1.20;99.90;;;-0.70;84.79;101936.34;5040130;28;20040;-40
2021/01/11 04:03:56;;;;;;;;;;;1.20;99.90;;;-0.68;85.45;101926.38;5040623;28;20032;-40
2021/01/11 04:06:23;;;;;;;37.05;15.43;;;1.30;99.90;;;-0.70;84.64;101925.63;5072938;28;20019;-40
2021/01/11 04:08:51;;;;;;;34.03;14.13;;;1.20;99.90;;;-0.70;85.00;101927.47;5023623;28;20045;-40
2021/01/11 04:11:20;;;;;;;31.20;15.02;;;1.20;99.90;;;-0.69;85.38;101927.34;5039701;28;20052;-40
2021/01/11 04:13:49;;;;;;;31.20;14.02;;;1.20;99.90;;;-0.73;86.15;101921.38;5072587;28;20044;-40
2021/01/11 04:16:18;;;;;;;35.35;14.50;;;1.20;99.90;;;-0.76;85.50;101924.28;5073011;28;20224;-40
2021/01/11 04:18:47;;;;;;;37.65;15.13;;;1.20;99.90;;;-0.74;86.21;101925.03;5089492;28;20521;-40
2021/01/11 04:21:15;;;;;;;30.98;14.68;;;1.20;99.90;;;-0.74;85.69;101918.78;5056291;28;20060;-40
2021/01/11 04:23:43;;;;;;;33.17;14.68;;;1.20;99.90;;;-0.69;86.34;101915.78;5056098;28;20040;-40
2021/01/11 04:26:11;;;;;;;39.13;16.10;;;1.20;99.90;;;-0.69;85.40;101919.31;5039686;28;20052;-40
2021/01/11 04:28:40;;;;;;;35.00;15.32;;;1.20;99.90;;;-0.69;86.19;101924.66;5023338;28;20044;-40
2021/01/11 04:31:08;;;;;;;30.52;14.95;;;1.20;99.90;;;-0.72;86.14;101927.56;5072362;28;20048;-40
2021/01/11 04:33:40;;;;;;;40.83;16.13;;;1.20;99.90;;;-0.74;86.29;101930.38;5056908;28;20040;-41
2021/01/11 04:36:07;;;;;;;27.98;14.00;;;1.20;99.90;;;-0.68;86.02;101933.59;5072265;28;20044;-40
2021/01/11 04:38:35;;;;;;;30.70;14.38;;;1.20;99.90;;;-0.68;86.42;101922.84;5023229;28;20041;-40
2021/01/11 04:41:04;;;;;;;27.53;13.47;;;1.20;99.90;;;-0.70;85.59;101930.16;5039383;28;20036;-40
2021/01/11 04:43:39;;;;;;;37.05;15.55;;;1.20;99.90;;;-0.71;86.40;101944.53;5072129;28;20041;-40
2021/01/11 04:46:07;;;;;;;29.85;14.20;;;1.20;99.90;;;-0.66;86.40;101950.41;5055722;28;20048;-40
2021/01/11 04:48:35;;;;;;;35.00;15.27;;;1.20;99.90;;;-0.67;85.35;101940.66;5022876;28;20072;-40
2021/01/11 04:51:03;;;;;;;33.65;15.02;;;1.20;99.90;;;-0.70;85.86;101941.72;5071522;28;20071;-40
2021/01/11 04:53:33;;;;;;;;;;;1.20;99.90;;;-0.63;85.55;101944.81;5089409;28;20414;-40
2021/01/11 04:56:03;;;;;;;32.03;12.82;;;1.20;99.90;;;-0.69;85.80;101932.72;5039292;28;19932;-40
2021/01/11 04:58:58;;;;;;;29.98;14.07;;;1.20;99.90;;;-0.66;85.27;101918.25;5056013;28;20064;-40
2021/01/11 05:01:28;;;;;;;33.20;14.23;;;1.20;99.90;;;-0.62;85.81;101911.69;5072072;28;20511;-40
2021/01/11 05:04:00;;;;;;;32.58;14.15;;;1.30;99.90;;;-0.61;85.92;101891.94;5088435;28;20456;-40
2021/01/11 05:06:29;;;;;;;31.75;14.68;;;1.30;99.90;;;-0.63;86.00;101916.19;5072039;28;20060;-40
2021/01/11 05:09:08;;;;;;;29.80;13.50;;;1.30;99.90;;;-0.65;86.56;101914.59;5088476;28;20060;-40
2021/01/11 05:11:35;;;;;;;34.90;15.77;;;1.30;99.90;;;-0.67;86.69;101911.16;5073138;28;20051;-40
2021/01/11 05:14:02;;;;;;;38.67;16.38;;;1.30;99.90;;;-0.69;86.32;101910.44;5055261;28;20052;-40
2021/01/11 05:16:30;;;;;;;30.43;13.73;;;1.20;99.90;;;-0.71;86.79;101901.66;5038784;28;20113;-40
2021/01/11 05:19:26;;;;;;;34.45;15.80;;;1.20;99.90;;;-0.69;87.04;101899.72;5071568;28;20040;-40
2021/01/11 05:21:54;;;;;;;29.35;13.38;;;1.20;99.90;;;-0.67;86.57;101897.75;5042561;28;20045;-40
2021/01/11 05:24:33;;;;;;;33.08;13.65;;;1.20;99.90;;;-0.63;86.98;101891.22;5021899;28;20543;-40
2021/01/11 05:27:05;;;;;;;30.98;13.82;;;1.30;99.90;;;-0.63;86.49;101891.22;5072634;28;20526;-40
2021/01/11 05:29:34;;;;;;;34.33;13.93;;;1.30;99.90;;;-0.63;86.66;101893.88;5072695;28;20053;-40
2021/01/11 05:32:07;;;;;;;35.78;13.55;;;1.30;99.90;;;-0.65;86.56;101898.50;5071232;28;20063;-40
2021/01/11 05:34:46;;;;;;;31.50;14.00;;;1.30;99.90;;;-0.62;86.54;101901.81;5037909;28;20052;-40
2021/01/11 05:37:34;;;;;;;35.95;14.50;;;1.30;99.90;;;-0.57;86.92;101898.78;5071162;28;20111;-40
2021/01/11 05:40:09;;;;;;;32.17;14.75;;;1.30;99.90;;;-0.55;87.18;101907.56;5054641;28;20045;-40
2021/01/11 05:42:39;;;;;;;35.17;15.35;;;1.30;99.90;;;-0.59;87.18;101896.25;5088278;28;20064;-40
2021/01/11 05:45:27;;;;;;;33.75;14.98;;;1.30;99.90;;;-0.58;87.10;101897.06;5070805;28;20499;-40
2021/01/11 05:48:09;;;;;;;39.80;15.60;;;1.30;99.90;;;-0.59;86.80;101895.38;5071166;28;20511;-40
2021/01/11 05:50:48;;;;;;;41.92;16.80;;;1.30;99.90;;;-0.58;87.47;101883.69;5070827;28;20144;-40
2021/01/11 05:53:27;;;;;;;40.13;16.30;;;1.30;99.90;;;-0.63;86.85;101876.00;5054106;28;20044;-40
2021/01/11 05:55:56;;;;;;;35.63;16.23;;;1.30;99.90;;;-0.61;86.99;101865.13;5054308;28;20044;-40
2021/01/11 05:58:26;;;;;;;35.58;15.63;;;1.30;99.90;;;-0.60;86.76;101851.63;5054415;28;20076;-40
2021/01/11 06:00:54;;;;;;;40.03;15.73;;;1.30;99.90;;;-0.57;87.64;101850.53;5038543;28;20507;-40
2021/01/11 06:03:21;;;;;;;38.20;16.42;;;1.30;99.90;;;-0.62;87.43;101848.22;5053598;28;20037;-40
2021/01/11 06:05:48;;;;;;;40.65;16.58;;;1.30;99.90;;;-0.56;87.01;101843.34;5037683;28;20098;-40
2021/01/11 06:08:16;;;;;;;34.05;16.75;;;1.30;99.90;;;-0.58;87.63;101846.16;5054146;28;20127;-40
2021/01/11 06:10:44;;;;;;;32.90;14.93;;;1.30;99.90;;;-0.57;87.85;101849.69;5054412;28;20047;-40
2021/01/11 06:13:12;;;;;;;;;;;1.30;99.90;;;-0.57;87.68;101855.91;5038312;28;20071;-40
2021/01/11 06:15:40;;;;;;;30.50;13.88;;;1.30;99.90;;;-0.56;87.79;101862.13;5037567;28;20301;-40
2021/01/11 06:18:10;;;;;;;;;;;1.30;99.90;;;-0.58;88.22;101859.53;5070972;28;20098;-40
2021/01/11 06:20:45;;;;;;;32.42;14.02;;;1.30;99.90;;;-0.59;87.95;101863.19;5070343;28;19928;-40
2021/01/11 06:23:26;;;;;;;32.85;14.90;;;1.30;99.90;;;-0.54;87.99;101852.13;5054415;28;20080;-40
2021/01/11 06:25:55;;;;;;;34.70;14.50;;;1.30;99.90;;;-0.54;87.26;101869.06;5071894;28;20507;-40
2021/01/11 06:28:35;;;;;;;34.15;14.50;;;1.40;99.90;;;-0.57;86.96;101871.97;5054065;28;20068;-40
2021/01/11 06:31:13;;;;;;;34.30;14.65;;;1.40;99.90;;;-0.51;87.10;101859.94;5070823;28;20055;-40
2021/01/11 06:33:42;;;;;;;29.77;13.75;;;1.40;99.90;;;-0.50;87.22;101870.56;5053834;28;20044;-40
2021/01/11 06:36:23;;;;;;;28.50;13.75;;;1.40;99.90;;;-0.47;87.03;101856.94;5020910;28;20046;-40
2021/01/11 06:38:53;;;;;;;28.13;13.75;;;1.40;99.90;;;-0.47;86.65;101858.75;5087429;28;20202;-40
2021/01/11 06:41:28;;;;;;;27.35;14.20;;;1.40;99.90;;;-0.49;87.12;101852.66;5071511;28;20523;-40
2021/01/11 06:44:07;;;;;;;27.42;12.57;;;1.40;99.90;;;-0.49;86.95;101850.84;5070051;28;20044;-40
2021/01/11 06:46:42;;;;;;;27.60;13.68;;;1.40;99.90;;;-0.41;86.98;101862.81;5070251;28;20514;-40
2021/01/11 06:49:24;;;;;;;29.25;13.48;;;1.50;99.90;;;-0.42;86.76;101859.25;5070286;28;20560;-40
2021/01/11 06:52:12;;;;;;;27.05;12.25;;;1.50;99.90;;;-0.43;87.56;101849.50;5086888;28;20071;-40
2021/01/11 06:54:45;;;;;;;24.05;11.60;;;1.50;99.90;;;-0.42;86.84;101837.81;5070235;28;20048;-40
2021/01/11 06:57:17;;;;;;;28.85;13.25;;;1.50;99.90;;;-0.36;86.36;101855.25;5087223;28;20040;-40
2021/01/11 06:59:47;;;;;;;25.35;12.05;;;1.50;99.90;;;-0.37;86.36;101850.88;5070108;28;20457;-40
2021/01/11 07:02:25;;;;;;;24.40;12.07;;;1.50;99.90;;;-0.30;85.90;101841.38;5071388;28;20040;-40
2021/01/11 07:04:53;;;;;;;25.92;12.75;;;1.60;99.90;;;-0.30;86.05;101842.25;5053413;28;20507;-40
2021/01/11 07:07:24;;;;;;;26.80;12.43;;;1.60;99.90;;;-0.30;86.04;101831.53;5070103;28;20064;-40
2021/01/11 07:09:57;;;;;;;25.58;12.00;;;1.60;99.90;;;-0.32;85.92;101837.97;5071517;28;20699;-40
2021/01/11 07:12:27;;;;;;;25.20;11.85;;;1.60;99.90;;;-0.35;85.95;101840.88;5086718;28;20045;-40
2021/01/11 07:15:01;;;;;;;26.63;11.70;;;1.60;99.90;;;-0.34;86.70;101839.91;5072474;28;20465;-40
2021/01/11 07:17:42;;;;;;;25.58;12.00;;;1.60;99.90;;;-0.28;86.03;101835.91;5075486;28;20470;-40
2021/01/11 07:20:14;;;;;;;22.55;10.90;;;1.60;99.90;;;-0.29;86.40;101843.09;5074145;28;20100;-40
2021/01/11 07:22:44;;;;;;;24.67;11.55;;;1.60;99.90;;;-0.26;85.90;101837.53;5041796;28;20403;-40
2021/01/11 07:25:24;;;;;;;24.25;11.57;;;1.60;99.90;;;-0.27;85.74;101834.94;5090480;28;20049;-40
2021/01/11 07:28:01;;;;;;;24.95;11.43;;;1.60;99.90;;;-0.26;85.24;101847.38;5073721;28;20090;-40
2021/01/11 07:30:33;;;;;;;27.33;11.60;;;1.60;99.90;;;-0.25;84.83;101855.34;5073588;28;20094;-40
2021/01/11 07:33:11;;;;;;;24.20;10.65;;;1.60;99.90;;;-0.23;84.87;101857.88;5074957;28;20056;-40
2021/01/11 07:35:39;;;;;;;21.23;10.77;;;1.60;99.90;;;-0.20;84.63;101860.31;5090308;28;20091;-40
2021/01/11 07:38:19;;;;;;;21.95;10.90;;;1.70;99.90;;;-0.24;84.54;101856.16;5057084;28;20511;-40
2021/01/11 07:40:56;;;;;;;24.30;10.95;;;1.70;99.90;;;-0.23;84.54;101837.28;5075214;28;20087;-40
2021/01/11 07:43:25;;;;;;;21.25;10.35;;;1.70;99.90;;;-0.26;84.71;101834.84;5090375;28;20041;-40
2021/01/11 07:46:03;;;;;;;21.30;10.55;;;1.70;99.90;;;-0.28;84.80;101822.50;5073576;28;20055;-40
2021/01/11 07:48:31;;;;;;;;;;;1.60;99.90;;;-0.30;84.06;101819.94;5073813;28;20045;-40
2021/01/11 07:51:10;;;;;;;23.63;9.93;;;1.60;99.90;;;-0.33;84.55;101833.56;5074869;28;19920;-40
2021/01/11 07:53:38;;;;;;;20.25;9.88;;;1.60;99.90;;;-0.33;84.52;101818.34;5073024;28;20048;-40
2021/01/11 07:56:08;;;;;;;21.38;9.80;;;1.60;99.90;;;-0.34;84.82;101811.28;5056549;28;20110;-40
2021/01/11 07:58:37;;;;;;;22.05;10.27;;;1.60;99.90;;;-0.34;84.84;101816.66;5056508;28;20101;-40
2021/01/11 08:01:08;;;;;;;23.40;10.77;;;1.60;99.90;;;-0.30;84.74;101814.56;5072892;28;20111;-40
2021/01/11 08:03:35;;;;;;;22.88;10.77;;;1.60;99.90;;;-0.43;84.55;101790.50;5073132;28;20048;-40
2021/01/11 08:06:05;;;;;;;22.67;10.70;;;1.60;99.90;;;-0.32;85.37;101800.41;5073261;28;20051;-40
2021/01/11 08:08:35;;;;;;;22.15;10.27;;;1.60;99.90;;;-0.33;84.62;101798.72;5074195;28;20091;-40
2021/01/11 08:11:05;;;;;;;21.58;10.75;;;1.60;99.90;;;-0.31;85.79;101797.63;5056450;28;20672;-40
2021/01/11 08:13:33;;;;;;;26.40;11.18;;;1.60;99.90;;;-0.35;86.23;101797.97;5072914;28;20040;-40
2021/01/11 08:16:12;;;;;;;24.98;11.75;;;1.60;99.90;;;-0.35;85.84;101801.53;5072739;28;20135;-40
2021/01/11 08:18:41;;;;;;;23.38;10.45;;;1.50;99.90;;;-0.32;86.27;101801.28;5072802;28;20040;-40
2021/01/11 08:21:11;;;;;;;27.88;11.13;;;1.60;99.90;;;-0.27;86.03;101800.91;5073855;28;20123;-40
2021/01/11 08:23:39;;;;;;;24.10;11.35;;;1.60;99.90;;;-0.28;86.16;101801.06;5072756;28;20040;-40
2021/01/11 08:26:11;;;;;;;26.13;11.10;;;1.60;99.90;;;-0.27;85.90;101797.41;5073060;28;20091;-40
2021/01/11 08:28:41;;;;;;;24.30;10.43;;;1.60;99.90;;;-0.27;86.16;101803.59;5073821;28;20518;-40
2021/01/11 08:31:08;;;;;;;27.50;11.50;;;1.60;99.90;;;-0.28;86.10;101801.91;5072429;28;20056;-40
2021/01/11 08:33:38;;;;;;;23.52;11.05;;;1.60;99.90;;;-0.26;86.44;101794.63;5039450;28;20056;-41
2021/01/11 08:36:17;;;;;;;21.65;10.27;;;1.60;99.90;;;-0.24;86.05;101795.34;5072378;28;20102;-40
2021/01/11 08:39:05;;;;;;;28.27;11.10;;;1.60;99.90;;;-0.22;85.78;101782.66;5072689;28;20053;-40
2021/01/11 08:41:37;;;;;;;24.98;11.45;;;1.70;99.90;;;-0.16;85.78;101781.31;5089250;28;20067;-41
2021/01/11 08:44:06;;;;;;;25.02;10.55;;;1.70;99.90;;;-0.17;85.22;101791.22;5072098;28;20090;-40
2021/01/11 08:46:52;;;;;;;;;;;1.70;99.90;;;-0.20;85.22;101804.00;5073941;28;20049;-40
2021/01/11 08:49:21;;;;;;;24.83;11.07;;;1.70;99.90;;;-0.16;84.37;101802.78;5072355;28;19920;-40
2021/01/11 08:51:49;;;;;;;21.83;10.30;;;1.70;99.90;;;-0.16;84.75;101800.97;5089079;28;20053;-40
2021/01/11 08:54:27;;;;;;;27.90;10.80;;;1.70;99.90;;;-0.16;84.98;101789.38;5055515;28;20465;-40
2021/01/11 08:56:58;;;;;;;23.23;10.55;;;1.70;99.90;;;-0.12;85.53;101780.13;5073402;28;20566;-40
2021/01/11 08:59:26;;;;;;;22.45;9.70;;;1.70;99.90;;;-0.15;85.08;101770.47;5071851;28;20127;-40
2021/01/11 09:01:53;;;;;;;20.85;9.27;;;1.70;99.90;;;-0.07;84.92;101777.06;5072054;28;20040;-40
2021/01/11 09:04:32;;;;;;;21.65;10.50;;;1.80;99.90;;;-0.09;84.13;101784.38;5055322;28;20051;-40
2021/01/11 09:07:02;;;;;;;;;;;1.80;99.90;;;-0.07;83.84;101764.53;5072494;28;20049;-40
2021/01/11 09:09:32;;;;;;;22.98;10.15;;;1.80;99.90;;;-0.08;84.28;101770.88;5072939;28;19927;-40
2021/01/11 09:12:13;;;;;;;22.45;10.05;;;1.80;99.90;;;-0.08;84.39;101770.88;5071719;28;20045;-40
2021/01/11 09:15:00;;;;;;;27.17;9.98;;;1.80;99.90;;;-0.03;83.59;101762.44;5073009;28;20106;-40
2021/01/11 09:17:31;;;;;;;20.25;9.20;;;1.80;99.90;;;0.00;83.29;101762.22;5088438;28;20072;-40
2021/01/11 09:20:04;;;;;;;21.83;9.25;;;1.90;99.90;;;0.02;83.63;101771.00;5071462;28;20100;-40
2021/01/11 09:22:40;;;;;;;22.45;9.55;;;1.90;99.90;;;0.03;84.31;101778.09;5072713;28;20049;-40
2021/01/11 09:25:12;;;;;;;20.38;8.68;;;1.90;99.90;;;0.09;83.70;101780.28;5072558;28;20094;-40
2021/01/11 09:27:40;;;;;;;22.17;9.80;;;1.90;99.90;;;0.11;83.50;101775.66;5072709;28;20102;-40
2021/01/11 09:30:09;;;;;;;24.88;8.95;;;2.00;99.90;;;0.16;84.18;101766.38;5088100;28;20056;-40
2021/01/11 09:32:36;;;;;;;21.05;8.63;;;2.00;99.90;;;0.10;83.75;101771.25;5072791;28;20048;-40
2021/01/11 09:35:05;;;;;;;20.42;9.75;;;2.00;99.90;;;0.16;84.47;101769.06;5038055;28;20413;-40
2021/01/11 09:37:33;;;;;;;21.83;9.93;;;2.00;99.90;;;0.17;84.39;101776.13;5072335;28;20410;-40
2021/01/11 09:40:00;;;;;;;22.13;9.27;;;2.00;99.90;;;0.20;83.99;101771.38;5088092;28;20099;-40
2021/01/11 09:42:27;;;;;;;22.95;9.82;;;2.00;99.90;;;0.23;83.97;101762.22;5054624;28;20402;-40
2021/01/11 09:44:54;;;;;;;21.25;9.00;;;2.00;99.90;;;0.26;83.75;101768.22;5087539;28;20094;-40
2021/01/11 09:47:22;;;;;;;20.25;7.97;;;2.10;99.90;;;0.25;83.95;101771.00;5071072;28;20084;-40
2021/01/11 09:49:51;;;;;;;20.17;8.30;;;2.10;99.90;;;0.31;83.78;101778.59;5071317;28;20070;-40
2021/01/11 09:52:18;;;;;;;;;;;2.10;99.90;;;0.34;83.71;101785.53;5054969;28;20140;-40
2021/01/11 09:54:45;;;;;;;20.00;8.32;;;2.20;99.90;;;0.34;84.09;101785.53;5054209;28;20283;-40
2021/01/11 09:57:12;;;;;;;16.63;8.45;;;2.20;99.90;;;0.33;83.78;101790.06;5070772;28;20040;-40
2021/01/11 09:59:40;;;;;;;21.60;8.88;;;2.20;99.90;;;0.36;83.92;101786.25;5037894;28;20077;-40
2021/01/11 10:02:09;;;;;;;17.48;8.05;;;2.20;99.90;;;0.43;84.04;101791.03;5071067;28;20112;-40
2021/01/11 10:04:37;;;;;;;18.83;7.80;;;2.20;99.90;;;0.43;83.59;101779.47;5087635;28;20040;-40
2021/01/11 10:07:08;;;;;;;14.05;7.45;;;2.30;99.90;;;0.32;83.07;101766.00;5054405;28;20065;-40
2021/01/11 10:09:35;;;;;;;19.55;8.27;;;2.30;99.90;;;0.51;82.92;101781.50;5070851;28;20468;-40
2021/01/11 10:12:05;;;;;;;18.27;8.10;;;2.30;99.90;;;0.47;83.01;101780.03;5054830;28;20044;-40
2021/01/11 10:14:33;;;;;;;17.42;7.68;;;2.30;99.90;;;0.46;83.33;101767.59;5071728;28;20059;-40
2021/01/11 10:17:01;;;;;;;;;;;2.30;99.90;;;0.43;82.97;101774.09;5072314;28;20506;-40
2021/01/11 10:19:30;;;;;;;16.00;7.13;;;2.30;99.90;;;0.41;83.49;101771.50;5071755;28;20395;-40
2021/01/11 10:22:00;;;;;;;19.73;8.07;;;2.30;99.90;;;0.40;83.60;101763.59;5070441;28;20066;-40
2021/01/11 10:24:28;;;;;;;18.30;8.63;;;2.30;99.90;;;0.38;83.66;101773.56;5071463;28;20426;-40
2021/01/11 10:26:56;;;;;;;16.05;7.25;;;2.30;99.90;;;0.39;84.04;101754.66;5054352;28;20067;-40
2021/01/11 10:29:25;;;;;;;15.93;7.30;;;2.20;99.90;;;0.37;84.28;101747.69;5070513;28;20053;-40
2021/01/11 10:31:53;;;;;;;17.58;7.85;;;2.20;99.90;;;0.40;84.52;101752.84;5072064;28;20082;-40
2021/01/11 10:34:21;;;;;;;;;;;2.20;99.90;;;0.46;83.84;101751.47;5088909;28;20048;-40